KSMF/SMF METAR and TAF weather

Enter ICAO airport designator
Station Type Date Time Source
KSMF METAR 2022/09/26 07:53 UTC NOAA

KSMF 260753Z 15009KT 10SM CLR 20/12 A2990 RMK AO2 SLP123 T02000122 403610150


Station Type Date Time Source
KSMF Decoded METAR 2022/09/26 07:53 UTC NOAA

SACRAMENTO INTERNATIONAL AIRPORT, CA, United States (KSMF) 38-42N 121-36W 6M
Sep 26, 2022 - 03:53 AM EDT / 2022.09.26 0753 UTC
Wind: from the SSE (150 degrees) at 10 MPH (9 KT):0
Visibility: 10 mile(s):0
Sky conditions: clear
Temperature: 68.0 F (20.0 C)
Dew Point: 54.0 F (12.2 C)
Relative Humidity: 60%
Pressure (altimeter): 29.9 in. Hg (1012 hPa)
ob: KSMF 260753Z 15009KT 10SM CLR 20/12 A2990 RMK AO2 SLP123 T02000122 403610150
cycle: 8

Station Type Date Time Source
KSMF TAF 2022/09/26 06:27 UTC NOAA

TAF KSMF 260523Z 2606/2706 17007KT P6SM SKC

Example: see airport list